createdAt,value
2024-01-10T00:00:20.024Z,23.74
2024-01-10T00:02:50.768Z,23.68
2024-01-10T00:05:22.955Z,23.68
2024-01-10T00:07:54.489Z,23.64
2024-01-10T00:10:25.038Z,23.60
2024-01-10T00:12:55.641Z,23.61
2024-01-10T00:15:26.580Z,23.57
2024-01-10T00:17:57.944Z,23.56
2024-01-10T00:20:28.146Z,23.53
2024-01-10T00:22:58.415Z,23.56
2024-01-10T00:25:29.168Z,23.57
2024-01-10T00:27:59.550Z,23.66
2024-01-10T00:30:31.572Z,23.68
2024-01-10T00:33:02.169Z,23.67
2024-01-10T00:35:33.417Z,23.66
2024-01-10T00:38:03.959Z,23.64
2024-01-10T00:40:35.792Z,23.61
2024-01-10T00:43:06.532Z,23.54
2024-01-10T00:45:36.549Z,23.57
2024-01-10T00:48:07.207Z,23.63
2024-01-10T00:50:39.506Z,23.66
2024-01-10T00:53:09.821Z,23.77
2024-01-10T00:55:40.242Z,23.75
2024-01-10T00:58:10.161Z,23.73
2024-01-10T01:00:41.435Z,23.70
2024-01-10T01:03:13.221Z,23.74
2024-01-10T01:05:44.453Z,23.68
2024-01-10T01:08:14.458Z,23.68
2024-01-10T01:10:44.863Z,23.68
2024-01-10T01:13:15.573Z,23.68
2024-01-10T01:15:46.985Z,23.71
2024-01-10T01:18:17.438Z,23.73
2024-01-10T01:20:47.401Z,23.74
2024-01-10T01:23:29.399Z,23.71
2024-01-10T01:26:07.086Z,23.71
2024-01-10T01:28:38.771Z,23.74
2024-01-10T01:31:09.025Z,23.71
2024-01-10T01:33:38.930Z,23.70
2024-01-10T01:36:10.332Z,23.66
2024-01-10T01:38:41.584Z,23.67
2024-01-10T01:41:13.636Z,23.67
2024-01-10T01:43:44.084Z,23.66
2024-01-10T01:46:14.544Z,23.61
2024-01-10T01:48:45.728Z,23.60
2024-01-10T01:51:18.910Z,23.60
2024-01-10T01:53:52.070Z,23.59
2024-01-10T01:56:22.963Z,23.63
2024-01-10T01:58:56.330Z,23.59
2024-01-10T02:01:27.032Z,23.56
2024-01-10T02:03:58.451Z,23.59
2024-01-10T02:06:29.494Z,23.56
2024-01-10T02:09:05.622Z,23.57
2024-01-10T02:11:37.006Z,23.54
2024-01-10T02:14:07.768Z,23.51
2024-01-10T02:16:38.022Z,23.54
2024-01-10T02:19:25.529Z,23.57
2024-01-10T02:21:56.066Z,23.59
2024-01-10T02:24:26.481Z,23.73
2024-01-10T02:26:56.622Z,23.75
2024-01-10T02:29:28.605Z,23.70
2024-01-10T02:32:00.753Z,23.70
2024-01-10T02:34:33.300Z,23.67
2024-01-10T02:37:04.376Z,23.57
2024-01-10T02:39:35.915Z,23.54
2024-01-10T02:42:07.006Z,23.51
2024-01-10T02:44:37.061Z,23.46
2024-01-10T02:47:08.070Z,23.39
2024-01-10T02:49:39.551Z,23.42
2024-01-10T02:52:09.941Z,23.39
2024-01-10T02:54:40.439Z,23.34
2024-01-10T02:57:10.472Z,23.34
2024-01-10T02:59:41.503Z,23.33
2024-01-10T03:02:12.283Z,23.31
2024-01-10T03:04:42.550Z,23.30
2024-01-10T03:07:13.492Z,23.31
2024-01-10T03:09:45.089Z,23.33
2024-01-10T03:12:16.974Z,23.39
2024-01-10T03:14:47.456Z,23.42
2024-01-10T03:17:17.360Z,23.37
2024-01-10T03:19:48.048Z,23.39
2024-01-10T03:22:20.434Z,23.39
2024-01-10T03:24:50.981Z,23.39
2024-01-10T03:27:20.832Z,23.40
2024-01-10T03:29:51.129Z,23.36
2024-01-10T03:32:21.881Z,23.31
2024-01-10T03:34:53.799Z,23.33
2024-01-10T03:37:24.004Z,23.31
2024-01-10T03:39:53.869Z,23.30
2024-01-10T03:42:24.914Z,23.30
2024-01-10T03:44:55.974Z,23.23
2024-01-10T03:47:26.399Z,23.22
2024-01-10T03:49:56.595Z,23.18
2024-01-10T03:52:26.435Z,23.18
2024-01-10T03:54:57.542Z,23.16
2024-01-10T03:57:27.966Z,23.12
2024-01-10T03:59:59.293Z,23.08
2024-01-10T04:02:30.320Z,23.08
2024-01-10T04:05:00.836Z,23.02
2024-01-10T04:07:34.298Z,22.98
2024-01-10T04:10:05.768Z,22.94
2024-01-10T04:12:35.857Z,22.89
2024-01-10T04:15:06.540Z,22.89
2024-01-10T04:17:37.948Z,22.87
2024-01-10T04:20:10.708Z,22.85
2024-01-10T04:22:41.268Z,22.82
2024-01-10T04:25:11.930Z,22.81
2024-01-10T04:27:42.672Z,22.78
2024-01-10T04:30:13.999Z,22.73
2024-01-10T04:32:44.520Z,22.75
2024-01-10T04:35:14.505Z,22.76
2024-01-10T04:37:45.108Z,22.73
2024-01-10T04:40:16.389Z,22.72
2024-01-10T04:42:47.453Z,22.71
2024-01-10T04:45:17.875Z,22.69
2024-01-10T04:47:49.229Z,22.68
2024-01-10T04:50:19.944Z,22.68
2024-01-10T04:52:50.085Z,22.60
2024-01-10T04:55:19.995Z,22.64
2024-01-10T04:57:50.721Z,22.60
2024-01-10T05:00:22.075Z,22.58
2024-01-10T05:02:55.047Z,22.58
2024-01-10T05:05:26.330Z,22.61
2024-01-10T05:07:57.064Z,22.60
2024-01-10T05:10:28.202Z,22.55
2024-01-10T05:12:58.817Z,22.47
2024-01-10T05:15:28.715Z,22.50
2024-01-10T05:17:59.727Z,22.48
2024-01-10T05:20:30.598Z,22.45
2024-01-10T05:23:03.707Z,22.43
2024-01-10T05:25:34.698Z,22.43
2024-01-10T05:28:04.800Z,22.43
2024-01-10T05:30:35.890Z,22.41
2024-01-10T05:33:06.370Z,22.34
2024-01-10T05:35:37.852Z,22.33
2024-01-10T05:38:08.151Z,22.33
2024-01-10T05:40:38.776Z,22.33
2024-01-10T05:43:09.366Z,22.30
2024-01-10T05:45:39.683Z,22.27
2024-01-10T05:48:10.293Z,22.21
2024-01-10T05:50:41.632Z,22.24
2024-01-10T05:53:14.777Z,22.20
2024-01-10T05:55:47.000Z,22.16
2024-01-10T05:58:17.240Z,22.17
2024-01-10T06:00:47.861Z,22.16
2024-01-10T06:03:18.707Z,22.10
2024-01-10T06:05:49.197Z,22.09
2024-01-10T06:08:19.671Z,22.06
2024-01-10T06:10:49.577Z,22.09
2024-01-10T06:13:20.124Z,22.04
2024-01-10T06:15:52.965Z,22.04
2024-01-10T06:18:24.840Z,22.04
2024-01-10T06:20:55.063Z,22.04
2024-01-10T06:23:25.042Z,21.97
2024-01-10T06:25:56.825Z,21.96
2024-01-10T06:28:27.589Z,21.96
2024-01-10T06:30:57.969Z,21.94
2024-01-10T06:33:29.764Z,21.92
2024-01-10T06:36:00.857Z,21.97
2024-01-10T06:38:31.702Z,21.94
2024-01-10T06:41:02.130Z,21.93
2024-01-10T06:43:32.700Z,21.93
2024-01-10T06:46:02.781Z,21.92
2024-01-10T06:48:34.834Z,21.85
2024-01-10T06:51:05.370Z,21.83
2024-01-10T06:53:35.225Z,21.78
2024-01-10T06:56:05.692Z,21.76
2024-01-10T06:58:36.643Z,21.76
2024-01-10T07:01:07.668Z,21.73
2024-01-10T07:03:37.716Z,21.71
2024-01-10T07:06:08.310Z,21.71
2024-01-10T07:08:38.504Z,21.72
2024-01-10T07:11:10.724Z,21.72
2024-01-10T07:13:41.634Z,21.66
2024-01-10T07:16:12.213Z,21.65
2024-01-10T07:18:43.032Z,21.65
2024-01-10T07:21:14.323Z,21.62
2024-01-10T07:23:45.950Z,21.55
2024-01-10T07:26:18.877Z,21.58
2024-01-10T07:28:49.693Z,21.54
2024-01-10T07:31:20.848Z,21.55
2024-01-10T07:33:51.418Z,21.51
2024-01-10T07:36:21.293Z,21.55
2024-01-10T07:38:51.841Z,21.52
2024-01-10T07:41:22.933Z,21.51
2024-01-10T07:43:53.732Z,21.49
2024-01-10T07:46:25.078Z,21.49
2024-01-10T07:48:56.011Z,21.46
2024-01-10T07:51:26.439Z,21.37
2024-01-10T07:53:56.760Z,21.35
2024-01-10T07:56:28.658Z,21.37
2024-01-10T07:58:59.050Z,21.39
2024-01-10T08:01:29.627Z,21.35
2024-01-10T08:04:01.273Z,21.41
2024-01-10T08:06:33.662Z,21.39
2024-01-10T08:09:07.012Z,21.35
2024-01-10T08:11:37.790Z,21.35
2024-01-10T08:14:08.925Z,21.34
2024-01-10T08:16:39.537Z,21.30
2024-01-10T08:19:10.007Z,21.27
2024-01-10T08:21:40.482Z,21.30
2024-01-10T08:24:10.811Z,21.25
2024-01-10T08:26:42.017Z,21.25
2024-01-10T08:29:12.121Z,21.27
2024-01-10T08:31:42.433Z,21.23
2024-01-10T08:34:12.777Z,21.20
2024-01-10T08:36:43.061Z,21.20
2024-01-10T08:39:14.723Z,21.20
2024-01-10T08:41:46.471Z,21.27
2024-01-10T08:44:16.997Z,21.32
2024-01-10T08:46:47.905Z,21.31
2024-01-10T08:49:19.484Z,21.35
2024-01-10T08:51:50.117Z,21.38
2024-01-10T08:54:22.146Z,21.34
2024-01-10T08:56:53.936Z,21.37
2024-01-10T08:59:24.651Z,21.42
2024-01-10T09:01:54.636Z,21.48
2024-01-10T09:04:24.784Z,21.51
2024-01-10T09:06:55.464Z,21.55
2024-01-10T09:09:27.046Z,21.58
2024-01-10T09:11:57.809Z,21.65
2024-01-10T09:14:27.763Z,21.72
2024-01-10T09:16:58.519Z,21.81
2024-01-10T09:19:29.149Z,21.93
2024-01-10T09:22:00.402Z,22.14
2024-01-10T09:24:30.530Z,22.23
2024-01-10T09:27:00.943Z,22.39
2024-01-10T09:29:31.650Z,22.54
2024-01-10T09:32:02.811Z,22.73
2024-01-10T09:34:34.873Z,22.89
2024-01-10T09:37:05.103Z,23.06
2024-01-10T09:39:35.065Z,23.20
2024-01-10T09:42:07.250Z,23.40
2024-01-10T09:44:39.103Z,23.64
2024-01-10T09:47:10.268Z,23.73
2024-01-10T09:49:40.763Z,23.77
2024-01-10T09:52:13.770Z,23.87
2024-01-10T09:54:48.687Z,23.98
2024-01-10T09:57:20.321Z,24.12
2024-01-10T09:59:53.383Z,24.24
2024-01-10T10:02:26.934Z,24.30
2024-01-10T10:05:07.596Z,24.38
2024-01-10T10:07:51.830Z,24.33
2024-01-10T10:10:22.709Z,24.30
2024-01-10T10:12:56.699Z,24.43
2024-01-10T10:15:31.750Z,24.57
2024-01-10T10:18:03.582Z,24.59
2024-01-10T10:20:39.616Z,24.75
2024-01-10T10:23:15.039Z,25.04
2024-01-10T10:25:52.340Z,25.13
2024-01-10T10:28:29.607Z,25.33
2024-01-10T10:31:04.511Z,25.45
2024-01-10T10:33:37.012Z,25.59
2024-01-10T10:36:09.799Z,25.73
2024-01-10T10:38:40.210Z,25.85
2024-01-10T10:41:13.356Z,25.88
2024-01-10T10:43:44.577Z,25.96
2024-01-10T10:46:15.192Z,26.17
2024-01-10T10:48:46.926Z,26.24
2024-01-10T10:51:35.774Z,26.43
2024-01-10T10:54:07.363Z,26.61
2024-01-10T10:56:41.852Z,26.62
2024-01-10T10:59:15.301Z,26.82
2024-01-10T11:01:48.856Z,27.03
2024-01-10T11:04:21.473Z,27.25
2024-01-10T11:06:52.561Z,27.36
2024-01-10T11:09:26.045Z,27.60
2024-01-10T11:12:31.118Z,27.93
2024-01-10T11:15:05.094Z,28.22
2024-01-10T11:18:13.016Z,28.72
2024-01-10T11:21:05.001Z,29.23
2024-01-10T11:23:49.140Z,29.83
2024-01-10T11:26:21.956Z,30.19
2024-01-10T11:28:53.985Z,30.65
2024-01-10T11:31:32.412Z,30.64
2024-01-10T11:34:05.884Z,30.03
2024-01-10T11:36:36.835Z,30.14
2024-01-10T11:39:08.367Z,30.22
2024-01-10T11:41:42.641Z,30.32
2024-01-10T11:44:19.951Z,30.74
2024-01-10T11:46:57.034Z,31.33
2024-01-10T11:49:28.921Z,31.07
2024-01-10T11:52:01.011Z,31.33
2024-01-10T11:54:40.916Z,31.30
2024-01-10T11:57:26.687Z,31.36
2024-01-10T12:00:02.239Z,31.69
2024-01-10T12:02:34.830Z,31.84
2024-01-10T12:05:05.181Z,32.13
2024-01-10T12:07:36.209Z,32.18
2024-01-10T12:10:08.383Z,32.08
2024-01-10T12:12:38.505Z,31.81
2024-01-10T12:15:10.079Z,31.70
2024-01-10T12:17:42.847Z,32.24
2024-01-10T12:20:14.645Z,32.58
2024-01-10T12:22:46.020Z,32.98
2024-01-10T12:25:16.860Z,32.92
2024-01-10T12:27:48.652Z,32.56
2024-01-10T12:30:20.271Z,32.62
2024-01-10T12:32:53.905Z,32.46
2024-01-10T12:35:24.822Z,31.96
2024-01-10T12:38:01.182Z,31.91
2024-01-10T12:40:32.993Z,31.77
2024-01-10T12:43:07.289Z,32.46
2024-01-10T12:45:37.496Z,32.79
2024-01-10T12:48:10.841Z,32.93
2024-01-10T12:50:42.984Z,33.43
2024-01-10T12:53:13.125Z,33.77
2024-01-10T12:55:42.992Z,33.92
2024-01-10T12:58:14.513Z,33.65
2024-01-10T13:00:45.051Z,33.53
2024-01-10T13:03:16.742Z,34.12
2024-01-10T13:05:46.935Z,33.77
2024-01-10T13:08:17.440Z,33.40
2024-01-10T13:10:52.099Z,33.61
2024-01-10T13:13:24.045Z,33.75
2024-01-10T13:15:54.602Z,33.67
2024-01-10T13:18:25.357Z,33.98
2024-01-10T13:20:56.499Z,34.36
2024-01-10T13:23:27.682Z,34.94
2024-01-10T13:25:57.997Z,35.19
2024-01-10T13:28:29.914Z,34.98
2024-01-10T13:31:00.975Z,34.49
2024-01-10T13:33:31.748Z,33.98
2024-01-10T13:36:01.663Z,34.25
2024-01-10T13:38:33.113Z,34.52
2024-01-10T13:41:05.563Z,34.71
2024-01-10T13:43:36.162Z,34.94
2024-01-10T13:46:09.378Z,34.35
2024-01-10T13:48:41.127Z,34.83
2024-01-10T13:51:12.097Z,34.83
2024-01-10T13:53:42.665Z,34.57
2024-01-10T13:56:14.529Z,34.69
2024-01-10T13:58:46.119Z,34.73
2024-01-10T14:01:17.621Z,34.88
2024-01-10T14:03:48.572Z,35.00
2024-01-10T14:06:18.492Z,35.28
2024-01-10T14:08:51.710Z,34.87
2024-01-10T14:11:23.089Z,34.86
2024-01-10T14:13:54.930Z,34.80
2024-01-10T14:16:25.786Z,35.41
2024-01-10T14:18:58.277Z,35.25
2024-01-10T14:21:30.097Z,35.27
2024-01-10T14:24:00.942Z,35.41
2024-01-10T14:26:30.873Z,35.55
2024-01-10T14:29:01.777Z,35.37
2024-01-10T14:31:44.148Z,35.62
2024-01-10T14:34:25.876Z,35.21
2024-01-10T14:36:56.049Z,35.15
2024-01-10T14:39:26.707Z,35.82
2024-01-10T14:41:57.842Z,36.03
2024-01-10T14:44:28.390Z,35.45
2024-01-10T14:47:03.893Z,35.55
2024-01-10T14:49:43.240Z,35.14
2024-01-10T14:52:14.858Z,35.19
2024-01-10T14:54:45.315Z,35.86
2024-01-10T14:57:15.204Z,35.97
2024-01-10T14:59:47.496Z,36.23
2024-01-10T15:02:22.002Z,36.15
2024-01-10T15:04:52.372Z,35.65
2024-01-10T15:07:22.295Z,36.32
2024-01-10T15:09:54.069Z,36.43
2024-01-10T15:12:24.721Z,36.75
2024-01-10T15:14:55.190Z,36.48
2024-01-10T15:17:26.523Z,36.27
2024-01-10T15:19:58.104Z,36.40
2024-01-10T15:22:29.435Z,36.61
2024-01-10T15:24:59.412Z,37.29
2024-01-10T15:27:30.324Z,37.15
2024-01-10T15:30:12.298Z,36.48
2024-01-10T15:32:49.170Z,36.61
2024-01-10T15:35:19.930Z,36.29
2024-01-10T15:37:50.731Z,36.44
2024-01-10T15:40:22.268Z,36.70
2024-01-10T15:42:52.931Z,36.64
2024-01-10T15:45:23.649Z,36.85
2024-01-10T15:47:53.562Z,36.84
2024-01-10T15:50:23.937Z,36.66
2024-01-10T15:52:54.691Z,36.91
2024-01-10T15:55:25.045Z,36.30
2024-01-10T15:57:55.384Z,35.90
2024-01-10T16:00:27.714Z,36.00
2024-01-10T16:02:58.697Z,35.86
2024-01-10T16:05:29.506Z,35.58
2024-01-10T16:08:00.218Z,35.56
2024-01-10T16:10:30.443Z,35.75
2024-01-10T16:13:01.563Z,35.45
2024-01-10T16:15:32.141Z,35.54
2024-01-10T16:18:03.450Z,35.51
2024-01-10T16:20:33.425Z,35.88
2024-01-10T16:23:04.234Z,36.39
2024-01-10T16:25:36.758Z,36.80
2024-01-10T16:28:07.347Z,36.78
2024-01-10T16:30:37.246Z,36.70
2024-01-10T16:33:08.776Z,36.37
2024-01-10T16:35:40.151Z,36.15
2024-01-10T16:38:10.510Z,36.23
2024-01-10T16:40:40.518Z,36.12
2024-01-10T16:43:11.743Z,36.50
2024-01-10T16:45:43.461Z,36.70
2024-01-10T16:48:13.782Z,36.75
2024-01-10T16:50:44.202Z,36.29
2024-01-10T16:53:14.358Z,36.13
2024-01-10T16:55:46.206Z,35.42
2024-01-10T16:58:16.828Z,35.92
2024-01-10T17:00:50.638Z,36.07
2024-01-10T17:03:22.600Z,36.34
2024-01-10T17:05:53.430Z,36.13
2024-01-10T17:08:25.069Z,36.03
2024-01-10T17:10:55.596Z,36.20
2024-01-10T17:13:25.704Z,36.27
2024-01-10T17:15:56.329Z,36.61
2024-01-10T17:18:27.476Z,35.90
2024-01-10T17:20:57.918Z,36.00
2024-01-10T17:23:27.867Z,35.90
2024-01-10T17:25:58.828Z,36.15
2024-01-10T17:28:31.614Z,35.96
2024-01-10T17:31:02.838Z,35.89
2024-01-10T17:33:35.130Z,35.76
2024-01-10T17:36:06.669Z,35.41
2024-01-10T17:38:37.602Z,34.76
2024-01-10T17:41:08.072Z,35.15
2024-01-10T17:43:38.435Z,35.06
2024-01-10T17:46:10.624Z,34.80
2024-01-10T17:48:42.508Z,34.84
2024-01-10T17:51:12.917Z,34.94
2024-01-10T17:53:43.395Z,34.69
2024-01-10T17:56:16.209Z,34.55
2024-01-10T17:58:47.169Z,34.45
2024-01-10T18:01:18.884Z,34.74
2024-01-10T18:03:58.651Z,34.67
2024-01-10T18:06:34.771Z,34.46
2024-01-10T18:09:06.749Z,34.31
2024-01-10T18:11:37.344Z,34.19
2024-01-10T18:14:07.251Z,34.16
2024-01-10T18:16:37.660Z,34.13
2024-01-10T18:19:08.105Z,34.05
2024-01-10T18:21:38.725Z,34.09
2024-01-10T18:24:08.925Z,34.22
2024-01-10T18:26:39.233Z,34.05
2024-01-10T18:29:09.439Z,33.98
2024-01-10T18:31:40.414Z,33.87
2024-01-10T18:34:11.501Z,33.80
2024-01-10T18:36:41.517Z,33.55
2024-01-10T18:39:15.048Z,33.46
2024-01-10T18:41:46.437Z,33.46
2024-01-10T18:44:17.428Z,33.34
2024-01-10T18:46:47.322Z,33.37
2024-01-10T18:49:18.419Z,33.14
2024-01-10T18:51:48.944Z,32.96
2024-01-10T18:54:20.109Z,32.85
2024-01-10T18:56:50.097Z,32.73
2024-01-10T18:59:21.459Z,32.66
2024-01-10T19:01:52.305Z,32.64
2024-01-10T19:04:23.100Z,32.66
2024-01-10T19:06:55.734Z,32.52
2024-01-10T19:09:26.826Z,32.42
2024-01-10T19:11:57.867Z,32.52
2024-01-10T19:14:28.223Z,32.46
2024-01-10T19:16:58.242Z,32.51
2024-01-10T19:19:29.564Z,32.59
2024-01-10T19:22:04.532Z,32.75
2024-01-10T19:24:34.893Z,32.93
2024-01-10T19:27:05.398Z,33.10
2024-01-10T19:29:35.852Z,33.16
2024-01-10T19:32:07.627Z,33.07
2024-01-10T19:34:38.607Z,33.03
2024-01-10T19:37:09.574Z,33.20
2024-01-10T19:39:40.172Z,33.23
2024-01-10T19:42:10.800Z,32.96
2024-01-10T19:44:42.224Z,32.83
2024-01-10T19:47:12.552Z,32.59
2024-01-10T19:49:42.616Z,32.46
2024-01-10T19:52:17.149Z,32.39
2024-01-10T19:54:47.805Z,32.21
2024-01-10T19:57:17.997Z,32.18
2024-01-10T19:59:48.280Z,32.13
2024-01-10T20:02:23.049Z,31.97
2024-01-10T20:04:55.236Z,31.73
2024-01-10T20:07:26.096Z,31.65
2024-01-10T20:09:57.729Z,31.69
2024-01-10T20:12:28.414Z,31.73
2024-01-10T20:14:58.686Z,31.72
2024-01-10T20:17:29.010Z,31.77
2024-01-10T20:20:00.646Z,31.84
2024-01-10T20:22:31.330Z,31.93
2024-01-10T20:25:02.088Z,31.84
2024-01-10T20:27:35.145Z,31.76
2024-01-10T20:30:06.824Z,31.63
2024-01-10T20:32:38.667Z,31.51
2024-01-10T20:35:09.536Z,31.35
2024-01-10T20:37:40.981Z,31.22
2024-01-10T20:40:12.171Z,31.12
2024-01-10T20:42:42.374Z,31.01
2024-01-10T20:45:14.770Z,30.91
2024-01-10T20:47:46.181Z,30.95
2024-01-10T20:50:16.467Z,30.92
2024-01-10T20:52:46.313Z,30.92
2024-01-10T20:55:18.325Z,31.01
2024-01-10T20:57:49.440Z,31.03
2024-01-10T21:00:24.683Z,30.90
2024-01-10T21:02:55.813Z,30.88
2024-01-10T21:05:27.051Z,30.70
2024-01-10T21:07:58.700Z,30.50
2024-01-10T21:10:29.474Z,30.43
2024-01-10T21:13:00.947Z,30.32
2024-01-10T21:15:31.738Z,30.27
2024-01-10T21:18:02.361Z,30.09
2024-01-10T21:20:34.717Z,30.05
2024-01-10T21:23:05.261Z,29.93
2024-01-10T21:25:35.508Z,29.83
2024-01-10T21:28:11.111Z,29.82
2024-01-10T21:30:41.010Z,29.81
2024-01-10T21:33:11.589Z,29.65
2024-01-10T21:35:42.312Z,29.57
2024-01-10T21:38:13.311Z,29.47
2024-01-10T21:40:43.645Z,29.45
2024-01-10T21:43:13.544Z,29.35
2024-01-10T21:45:44.353Z,29.25
2024-01-10T21:48:16.117Z,29.13
2024-01-10T21:50:46.795Z,29.14
2024-01-10T21:53:17.168Z,29.15
2024-01-10T21:55:48.181Z,29.08
2024-01-10T21:58:19.988Z,29.08
2024-01-10T22:00:50.584Z,28.96
2024-01-10T22:03:27.982Z,28.90
2024-01-10T22:06:06.364Z,28.76
2024-01-10T22:08:37.273Z,28.59
2024-01-10T22:11:07.981Z,28.52
2024-01-10T22:13:38.022Z,28.36
2024-01-10T22:16:12.008Z,28.21
2024-01-10T22:18:45.027Z,28.02
2024-01-10T22:21:15.551Z,27.88
2024-01-10T22:23:45.398Z,27.69
2024-01-10T22:26:17.344Z,27.57
2024-01-10T22:28:48.828Z,27.49
2024-01-10T22:31:19.345Z,27.39
2024-01-10T22:33:49.337Z,27.35
2024-01-10T22:36:20.185Z,27.30
2024-01-10T22:38:52.084Z,27.36
2024-01-10T22:41:22.554Z,27.40
2024-01-10T22:43:52.764Z,27.40
2024-01-10T22:46:23.012Z,27.40
2024-01-10T22:48:53.450Z,27.33
2024-01-10T22:51:24.126Z,27.25
2024-01-10T22:53:54.514Z,27.10
2024-01-10T22:56:24.480Z,26.96
2024-01-10T22:58:55.118Z,26.85
2024-01-10T23:01:27.936Z,26.75
2024-01-10T23:03:59.004Z,26.71
2024-01-10T23:06:30.174Z,26.62
2024-01-10T23:09:02.581Z,26.62
2024-01-10T23:11:33.514Z,26.61
2024-01-10T23:14:04.077Z,26.61
2024-01-10T23:16:34.309Z,26.71
2024-01-10T23:19:04.401Z,26.70
2024-01-10T23:21:38.831Z,26.60
2024-01-10T23:24:11.198Z,26.52
2024-01-10T23:26:41.569Z,26.50
2024-01-10T23:29:11.766Z,26.43
2024-01-10T23:31:42.624Z,26.34
2024-01-10T23:34:14.559Z,26.30
2024-01-10T23:36:45.328Z,26.16
2024-01-10T23:39:16.834Z,26.14
2024-01-10T23:41:49.376Z,26.14
2024-01-10T23:44:20.909Z,26.12
2024-01-10T23:46:52.940Z,26.09
2024-01-10T23:49:24.297Z,26.04
2024-01-10T23:51:55.218Z,26.04
2024-01-10T23:54:27.389Z,26.06
2024-01-10T23:56:57.719Z,26.07
2024-01-10T23:59:27.668Z,26.17
